createdAt,value
2017-05-21T06:38:10.771Z,12.13
2017-05-21T06:38:51.355Z,12.24
2017-05-21T06:39:31.962Z,12.27
2017-05-21T06:40:12.604Z,12.37
2017-05-21T06:40:53.228Z,12.31
2017-05-21T06:41:33.812Z,12.31
2017-05-21T06:42:14.424Z,12.31
2017-05-21T06:42:55.041Z,12.35
2017-05-21T06:43:35.703Z,12.39
2017-05-21T06:44:16.529Z,12.47
2017-05-21T06:44:57.329Z,12.45
2017-05-21T06:45:37.868Z,12.49
2017-05-21T06:46:18.481Z,12.54
2017-05-21T06:46:59.194Z,12.6
2017-05-21T06:47:40.021Z,12.71
2017-05-21T06:48:20.691Z,12.64
2017-05-21T06:49:01.348Z,12.65
2017-05-21T06:49:41.984Z,12.92
2017-05-21T06:50:22.614Z,12.89
2017-05-21T06:51:03.236Z,12.97
2017-05-21T06:51:43.934Z,12.89
2017-05-21T06:52:24.605Z,12.97
2017-05-21T06:53:05.456Z,13.04
2017-05-21T06:53:46.239Z,13.08
2017-05-21T06:54:26.807Z,13.14
2017-05-21T06:55:07.517Z,13.14
2017-05-21T06:55:48.107Z,13.2
2017-05-21T06:56:29.074Z,13.22
2017-05-21T06:57:10.052Z,13.3
2017-05-21T06:57:50.727Z,13.33
2017-05-21T06:58:32.982Z,13.45
2017-05-21T07:00:05.433Z,13.41
2017-05-21T07:00:46.042Z,13.39
2017-05-21T07:01:26.661Z,13.41
2017-05-21T07:02:07.301Z,13.39
2017-05-21T07:02:47.972Z,13.49
2017-05-21T07:03:28.597Z,13.49
2017-05-21T07:04:09.195Z,13.51
2017-05-21T07:04:50.076Z,13.55
2017-05-21T07:05:30.783Z,13.52
2017-05-21T07:06:11.449Z,13.67
2017-05-21T07:06:52.037Z,13.67
2017-05-21T07:07:32.625Z,13.81
2017-05-21T07:08:13.225Z,13.82
2017-05-21T07:08:53.840Z,13.82
2017-05-21T07:09:34.429Z,13.78
2017-05-21T07:10:15.024Z,13.82
2017-05-21T07:10:55.684Z,13.81
2017-05-21T07:11:36.357Z,13.79
2017-05-21T07:12:16.876Z,13.87
2017-05-21T07:12:57.474Z,13.82
2017-05-21T07:13:38.072Z,13.75
2017-05-21T07:14:18.679Z,13.79
2017-05-21T07:14:59.312Z,13.82
2017-05-21T07:15:39.900Z,13.82
2017-05-21T07:16:20.484Z,13.82
2017-05-21T07:17:01.106Z,13.81
2017-05-21T07:17:41.690Z,13.99
2017-05-21T07:18:22.289Z,14.03
2017-05-21T07:19:02.877Z,14
2017-05-21T07:19:43.471Z,14.03
2017-05-21T07:20:24.080Z,14.03
2017-05-21T07:21:04.666Z,14.04
2017-05-21T07:21:45.275Z,14.02
2017-05-21T07:22:25.950Z,14.04
2017-05-21T07:23:06.546Z,14.21
2017-05-21T07:23:47.206Z,14.21
2017-05-21T07:24:27.803Z,14.24
2017-05-21T07:25:08.394Z,14.37
2017-05-21T07:25:48.995Z,14.42
2017-05-21T07:26:29.611Z,14.45
2017-05-21T07:27:10.988Z,14.52
2017-05-21T07:27:51.556Z,14.68
2017-05-21T07:28:32.158Z,14.72
2017-05-21T07:29:12.744Z,14.54
2017-05-21T07:29:53.351Z,14.58
2017-05-21T07:30:33.983Z,14.51
2017-05-21T07:31:14.585Z,14.5
2017-05-21T07:31:55.363Z,14.54
2017-05-21T07:32:36.004Z,14.52
2017-05-21T07:33:16.687Z,14.57
2017-05-21T07:33:57.339Z,14.57
2017-05-21T07:34:37.970Z,14.65
2017-05-21T07:35:18.667Z,14.61
2017-05-21T07:35:59.353Z,14.77
2017-05-21T07:36:40.088Z,14.8
2017-05-21T07:37:20.698Z,14.88
2017-05-21T07:38:01.321Z,14.92
2017-05-21T07:38:42.339Z,15.01
2017-05-21T07:39:22.766Z,15.09
2017-05-21T07:40:03.398Z,15.06
2017-05-21T07:40:44.029Z,15.14
2017-05-21T07:41:24.762Z,15.11
2017-05-21T07:42:05.437Z,15.1
2017-05-21T07:42:46.102Z,15.14
2017-05-21T07:43:26.855Z,15.27
2017-05-21T07:44:07.497Z,15.36
2017-05-21T07:44:48.074Z,15.35
2017-05-21T07:45:28.765Z,15.34
2017-05-21T07:46:09.539Z,15.46
2017-05-21T07:46:50.171Z,15.5
2017-05-21T07:47:30.854Z,15.59
2017-05-21T07:48:11.677Z,15.68
2017-05-21T07:48:52.282Z,15.64
2017-05-21T07:49:33.097Z,15.69
2017-05-21T07:50:13.689Z,15.84
2017-05-21T07:50:54.285Z,15.8
2017-05-21T07:51:34.935Z,15.93
2017-05-21T07:52:15.550Z,15.97
2017-05-21T07:52:56.150Z,16.02
2017-05-21T07:53:36.762Z,15.92
2017-05-21T07:54:17.414Z,15.93
2017-05-21T07:54:57.995Z,15.93
2017-05-21T07:55:38.782Z,15.83
2017-05-21T07:56:19.447Z,15.78
2017-05-21T07:57:00.010Z,15.78
2017-05-21T07:57:40.642Z,15.93
2017-05-21T07:58:21.242Z,15.97
2017-05-21T07:59:01.968Z,15.94
2017-05-21T07:59:42.543Z,16
2017-05-21T08:00:23.163Z,16.05
2017-05-21T08:01:03.727Z,16.15
2017-05-21T08:01:44.324Z,16.38
2017-05-21T08:02:24.927Z,16.48
2017-05-21T08:03:05.530Z,16.5
2017-05-21T08:03:46.112Z,16.64
2017-05-21T08:04:26.682Z,16.75
2017-05-21T08:05:07.297Z,16.78
2017-05-21T08:05:47.887Z,16.86
2017-05-21T08:06:28.484Z,16.94
2017-05-21T08:07:09.064Z,17
2017-05-21T08:07:49.653Z,17.06
2017-05-21T08:08:30.219Z,17.03
2017-05-21T08:09:10.817Z,17.08
2017-05-21T08:09:51.415Z,16.88
2017-05-21T08:10:31.992Z,16.89
2017-05-21T08:11:12.564Z,16.85
2017-05-21T08:11:53.145Z,16.86
2017-05-21T08:12:33.771Z,16.83
2017-05-21T08:13:14.359Z,16.82
2017-05-21T08:13:54.969Z,16.86
2017-05-21T08:14:35.693Z,16.88
2017-05-21T08:15:16.274Z,16.79
2017-05-21T08:15:56.876Z,16.76
2017-05-21T08:16:37.458Z,16.78
2017-05-21T08:17:18.068Z,16.83
2017-05-21T08:17:58.745Z,16.82
2017-05-21T08:18:39.275Z,16.88
2017-05-21T08:19:19.865Z,16.82
2017-05-21T08:20:00.440Z,16.86
2017-05-21T08:20:41.021Z,16.86
2017-05-21T08:21:21.605Z,16.88
2017-05-21T08:22:02.231Z,16.94
2017-05-21T08:22:42.859Z,16.94
2017-05-21T08:23:23.457Z,17.03
2017-05-21T08:24:04.038Z,17.23
2017-05-21T08:24:44.638Z,17.18
2017-05-21T08:25:25.222Z,17.3
2017-05-21T08:26:05.807Z,17.41
2017-05-21T08:26:46.397Z,17.52
2017-05-21T08:27:27.017Z,17.59
2017-05-21T08:28:07.605Z,17.63
2017-05-21T08:28:48.207Z,17.71
2017-05-21T08:29:28.787Z,17.95
2017-05-21T08:30:09.393Z,18
2017-05-21T08:30:49.981Z,18.15
2017-05-21T08:31:30.569Z,18.3
2017-05-21T08:32:11.149Z,18.51
2017-05-21T08:32:51.735Z,18.72
2017-05-21T08:33:32.364Z,18.8
2017-05-21T08:34:12.950Z,18.94
2017-05-21T08:34:53.571Z,19.07
2017-05-21T08:35:34.164Z,19.11
2017-05-21T08:36:14.749Z,19.26
2017-05-21T08:36:55.329Z,19.22
2017-05-21T08:37:35.915Z,19.13
2017-05-21T08:38:16.574Z,19.21
2017-05-21T08:38:57.120Z,19.14
2017-05-21T08:39:37.725Z,19.32
2017-05-21T08:40:18.334Z,19.44
2017-05-21T08:40:58.918Z,19.58
2017-05-21T08:41:39.533Z,19.91
2017-05-21T08:42:20.138Z,20.18
2017-05-21T08:43:00.726Z,20.48
2017-05-21T08:43:41.352Z,20.74
2017-05-21T08:44:21.932Z,21.04
2017-05-21T08:45:02.524Z,21.17
2017-05-21T08:45:43.146Z,21.46
2017-05-21T08:46:23.688Z,21.58
2017-05-21T08:47:04.316Z,21.58
2017-05-21T08:47:45.223Z,21.59
2017-05-21T08:48:25.823Z,21.58
2017-05-21T08:49:06.463Z,21.58
2017-05-21T08:49:47.097Z,21.59
2017-05-21T08:50:27.750Z,21.62
2017-05-21T08:51:08.505Z,21.64
2017-05-21T08:51:49.165Z,21.83
2017-05-21T08:52:29.793Z,22.03
2017-05-21T08:53:10.439Z,22.2
2017-05-21T08:53:51.186Z,22.25
2017-05-21T08:54:31.847Z,22.35
2017-05-21T08:55:12.482Z,22.33
2017-05-21T08:55:54.830Z,22.17
2017-05-21T08:56:35.463Z,22.24
2017-05-21T08:57:17.030Z,22
2017-05-21T08:57:57.653Z,21.69
2017-05-21T08:58:38.984Z,21.59
2017-05-21T08:59:19.641Z,21.53
2017-05-21T09:00:00.318Z,21.54
2017-05-21T09:00:41.019Z,21.52
2017-05-21T09:01:21.672Z,21.52
2017-05-21T09:02:02.301Z,21.59
2017-05-21T09:02:42.938Z,21.64
2017-05-21T09:03:23.537Z,21.47
2017-05-21T09:04:04.153Z,21.34
2017-05-21T09:04:44.750Z,21.34
2017-05-21T09:05:25.338Z,21.49
2017-05-21T09:06:05.924Z,21.64
2017-05-21T09:06:46.499Z,21.64
2017-05-21T09:07:27.080Z,21.69
2017-05-21T09:08:07.665Z,21.71
2017-05-21T09:08:48.251Z,21.47
2017-05-21T09:09:28.844Z,21.17
2017-05-21T09:10:09.417Z,21.14
2017-05-21T09:10:50.012Z,20.94
2017-05-21T09:11:30.605Z,20.77
2017-05-21T09:12:11.190Z,20.55
2017-05-21T09:12:51.804Z,20.66
2017-05-21T09:13:32.384Z,20.59
2017-05-21T09:14:12.986Z,20.62
2017-05-21T09:14:53.592Z,20.73
2017-05-21T09:15:34.182Z,20.74
2017-05-21T09:16:14.774Z,20.82
2017-05-21T09:16:55.405Z,20.85
2017-05-21T09:17:36.001Z,20.88
2017-05-21T09:18:16.628Z,20.98
2017-05-21T09:18:57.168Z,20.95
2017-05-21T09:19:37.742Z,21.04
2017-05-21T09:20:18.333Z,21.01
2017-05-21T09:20:58.914Z,20.92
2017-05-21T09:21:39.505Z,20.92
2017-05-21T09:22:20.091Z,20.76
2017-05-21T09:23:00.673Z,20.64
2017-05-21T09:23:41.286Z,20.51
2017-05-21T09:24:21.879Z,20.41
2017-05-21T09:25:02.527Z,20.29
2017-05-21T09:25:43.210Z,20.23
2017-05-21T09:26:23.864Z,20.13
2017-05-21T09:27:04.530Z,20.06
2017-05-21T09:27:45.167Z,20.11
2017-05-21T09:28:25.812Z,19.95
2017-05-21T09:29:06.496Z,20.06
2017-05-21T09:29:47.152Z,20.17
2017-05-21T09:30:27.792Z,20.14
2017-05-21T09:31:08.429Z,20.36
2017-05-21T09:31:49.066Z,20.5
2017-05-21T09:32:29.672Z,20.89
2017-05-21T09:33:10.285Z,21.12
2017-05-21T09:33:50.917Z,21.58
2017-05-21T09:34:31.606Z,21.9
2017-05-21T09:35:12.221Z,22.21
2017-05-21T09:35:52.872Z,22.52
2017-05-21T09:36:33.463Z,22.77
2017-05-21T09:37:14.085Z,23.04
2017-05-21T09:37:54.685Z,23.16
2017-05-21T09:38:35.319Z,23.13
2017-05-21T09:39:15.960Z,23.22
2017-05-21T09:39:56.567Z,23.17
2017-05-21T09:40:37.183Z,23.16
2017-05-21T09:41:17.816Z,23.13
2017-05-21T09:41:58.426Z,23.01
2017-05-21T09:42:39.061Z,22.83
2017-05-21T09:43:19.680Z,22.88
2017-05-21T09:44:00.299Z,22.77
2017-05-21T09:44:40.896Z,22.76
2017-05-21T09:45:21.481Z,22.75
2017-05-21T09:46:02.082Z,22.65
2017-05-21T09:46:42.730Z,22.61
2017-05-21T09:47:23.305Z,22.7
2017-05-21T09:48:03.915Z,22.82
2017-05-21T09:48:44.487Z,23.01
2017-05-21T09:49:25.062Z,23.17
2017-05-21T09:50:05.659Z,23.39
2017-05-21T09:50:46.248Z,23.54
2017-05-21T09:51:26.834Z,23.73
2017-05-21T09:52:07.444Z,23.95
2017-05-21T09:52:48.027Z,24.09
2017-05-21T09:53:28.650Z,24.15
2017-05-21T09:54:09.218Z,24.18
2017-05-21T09:54:49.860Z,24.34
2017-05-21T09:55:30.443Z,24.24
2017-05-21T09:56:11.048Z,24.43
2017-05-21T09:56:51.698Z,24.4
2017-05-21T09:57:32.401Z,24.24
2017-05-21T09:58:13.000Z,24.13
2017-05-21T09:58:53.597Z,24.34
2017-05-21T09:59:34.221Z,24.58
2017-05-21T10:00:14.818Z,24.9
2017-05-21T10:00:55.407Z,25.17
2017-05-21T10:01:36.013Z,25.45
2017-05-21T10:02:16.618Z,25.82
2017-05-21T10:02:57.226Z,26.12
2017-05-21T10:03:37.837Z,26.32
2017-05-21T10:04:18.423Z,26.57
2017-05-21T10:04:59.060Z,26.84
2017-05-21T10:05:39.651Z,27.04
2017-05-21T10:06:20.237Z,27.39
2017-05-21T10:07:00.816Z,27.66
2017-05-21T10:07:41.427Z,27.82
2017-05-21T10:08:22.030Z,27.93
2017-05-21T10:09:02.616Z,28.07
2017-05-21T10:09:43.205Z,28.29
2017-05-21T10:10:23.794Z,28.54
2017-05-21T10:11:04.381Z,28.76
2017-05-21T10:11:44.956Z,28.83
2017-05-21T10:12:25.539Z,29
2017-05-21T10:13:06.128Z,29.08
2017-05-21T10:13:46.720Z,28.96
2017-05-21T10:14:27.299Z,28.93
2017-05-21T10:15:07.877Z,28.85
2017-05-21T10:15:48.472Z,28.15
2017-05-21T10:16:29.056Z,27.46
2017-05-21T10:17:09.650Z,26.85
2017-05-21T10:17:50.229Z,26.2
2017-05-21T10:18:30.857Z,25.72
2017-05-21T10:19:11.464Z,25.5
2017-05-21T10:19:52.062Z,25.05
2017-05-21T10:20:32.665Z,25.03
2017-05-21T10:21:13.271Z,25.08
2017-05-21T10:21:53.857Z,25.2
2017-05-21T10:22:34.444Z,25.17
2017-05-21T10:23:15.027Z,25.51
2017-05-21T10:23:55.605Z,25.57
2017-05-21T10:24:36.208Z,25.45
2017-05-21T10:25:16.785Z,25.27
2017-05-21T10:25:57.364Z,25.06
2017-05-21T10:26:37.955Z,24.9
2017-05-21T10:27:18.539Z,24.58
2017-05-21T10:27:59.121Z,24.15
2017-05-21T10:28:39.710Z,24
2017-05-21T10:29:20.290Z,23.87
2017-05-21T10:30:00.904Z,23.48
2017-05-21T10:30:41.487Z,23.32
2017-05-21T10:31:22.107Z,23.17
2017-05-21T10:32:02.699Z,23.16
2017-05-21T10:32:43.301Z,23.46
2017-05-21T10:33:23.900Z,23.7
2017-05-21T10:34:04.493Z,23.72
2017-05-21T10:34:45.078Z,23.47
2017-05-21T10:35:25.688Z,23.33
2017-05-21T10:36:06.281Z,23.16
2017-05-21T10:36:46.909Z,22.98
2017-05-21T10:37:27.519Z,22.8
2017-05-21T10:38:08.139Z,22.75
2017-05-21T10:38:48.728Z,22.62
2017-05-21T10:39:29.316Z,22.54
2017-05-21T10:40:09.923Z,22.57
2017-05-21T10:40:50.535Z,22.45
2017-05-21T10:41:31.148Z,22.49
2017-05-21T10:42:11.753Z,22.4
2017-05-21T10:42:52.383Z,22.42
2017-05-21T10:43:33.006Z,22.46
2017-05-21T10:44:13.595Z,22.49
2017-05-21T10:44:54.189Z,22.54
2017-05-21T10:45:34.813Z,22.57
2017-05-21T10:46:15.428Z,22.72
2017-05-21T10:46:56.052Z,22.92
2017-05-21T10:47:36.638Z,23.2
2017-05-21T10:48:17.249Z,23.39
2017-05-21T10:48:57.840Z,23.58
2017-05-21T10:49:38.449Z,23.58
2017-05-21T10:50:19.040Z,23.8
2017-05-21T10:50:59.658Z,23.9
2017-05-21T10:51:40.245Z,24.02
2017-05-21T10:52:20.871Z,24.15
2017-05-21T10:53:01.455Z,24.39
2017-05-21T10:53:42.037Z,24.39
2017-05-21T10:54:22.618Z,24.45
2017-05-21T10:55:03.281Z,24.34
2017-05-21T10:55:43.870Z,24.16
2017-05-21T10:56:24.447Z,23.93
2017-05-21T10:57:05.056Z,23.61
2017-05-21T10:57:45.649Z,23.48
2017-05-21T10:58:26.227Z,23.48
2017-05-21T10:59:06.816Z,23.51
2017-05-21T10:59:47.405Z,23.72
2017-05-21T11:00:27.978Z,23.87
2017-05-21T11:01:08.608Z,23.94
2017-05-21T11:01:49.189Z,24.06
2017-05-21T11:02:29.777Z,24.09
2017-05-21T11:03:10.371Z,24.05
2017-05-21T11:03:50.951Z,23.98
2017-05-21T11:04:31.537Z,23.93
2017-05-21T11:05:12.120Z,23.97
2017-05-21T11:05:52.712Z,23.94
2017-05-21T11:06:33.306Z,24.06
2017-05-21T11:07:13.898Z,24.1
2017-05-21T11:07:54.494Z,24.2
2017-05-21T11:08:35.083Z,24.06
2017-05-21T11:09:15.663Z,24.18
2017-05-21T11:09:56.247Z,24.16
2017-05-21T11:10:36.835Z,24.18
2017-05-21T11:11:17.419Z,24.03
2017-05-21T11:11:58.007Z,23.9
2017-05-21T11:12:38.606Z,23.88
2017-05-21T11:13:19.213Z,23.94
2017-05-21T11:13:59.794Z,23.97
2017-05-21T11:14:40.380Z,24.06
2017-05-21T11:15:20.964Z,24.08
2017-05-21T11:16:01.547Z,23.9
2017-05-21T11:16:42.135Z,23.65
2017-05-21T11:17:22.716Z,23.47
2017-05-21T11:18:03.302Z,23.23
2017-05-21T11:18:43.883Z,23.02
2017-05-21T11:19:24.479Z,22.98
2017-05-21T11:20:05.088Z,22.8
2017-05-21T11:20:45.677Z,22.75
2017-05-21T11:21:26.265Z,22.61
2017-05-21T11:22:06.849Z,22.61
2017-05-21T11:22:47.430Z,22.57
2017-05-21T11:23:28.011Z,22.47
2017-05-21T11:24:08.596Z,22.46
2017-05-21T11:24:49.187Z,22.54
2017-05-21T11:25:29.776Z,22.47
2017-05-21T11:26:10.359Z,22.4
2017-05-21T11:26:50.953Z,22.47
2017-05-21T11:27:31.556Z,22.52
2017-05-21T11:28:12.109Z,22.47
2017-05-21T11:28:52.697Z,22.72
2017-05-21T11:29:33.320Z,23
2017-05-21T11:30:13.857Z,23.19
2017-05-21T11:30:54.451Z,23.32
2017-05-21T11:31:35.039Z,23.36
2017-05-21T11:32:15.621Z,23.58
2017-05-21T11:32:56.205Z,23.58
2017-05-21T11:33:36.782Z,23.78
2017-05-21T11:34:17.365Z,23.93
2017-05-21T11:34:57.947Z,24.12
2017-05-21T11:35:38.516Z,24.25
2017-05-21T11:36:19.099Z,24.27
2017-05-21T11:36:59.693Z,24.32
2017-05-21T11:37:40.266Z,24.52
2017-05-21T11:38:20.854Z,24.71
2017-05-21T11:39:01.440Z,24.87
2017-05-21T11:39:42.020Z,24.91
2017-05-21T11:40:22.609Z,25.08
2017-05-21T11:41:03.185Z,25.18
2017-05-21T11:41:43.777Z,25.14
2017-05-21T11:42:24.362Z,25.17
2017-05-21T11:43:04.958Z,25.24
2017-05-21T11:43:45.539Z,25.32
2017-05-21T11:44:26.120Z,25.35
2017-05-21T11:45:06.736Z,25.42
2017-05-21T11:45:47.325Z,25.52
2017-05-21T11:46:27.900Z,25.54
2017-05-21T11:47:08.491Z,25.52
2017-05-21T11:47:49.066Z,25.54
2017-05-21T11:48:29.651Z,25.45
2017-05-21T11:49:10.243Z,25.45
2017-05-21T11:49:50.833Z,25.35
2017-05-21T11:50:31.419Z,25.25
2017-05-21T11:51:12.020Z,25.32
2017-05-21T11:51:52.607Z,25.21
2017-05-21T11:52:33.190Z,25.17
2017-05-21T11:53:13.785Z,25.03
2017-05-21T11:53:54.372Z,25.09
2017-05-21T11:54:34.948Z,25.02
2017-05-21T11:55:15.530Z,25.08
2017-05-21T11:55:56.110Z,25.23
2017-05-21T11:56:36.686Z,25.15
2017-05-21T11:57:17.265Z,25.15
2017-05-21T11:57:57.853Z,25.15
2017-05-21T11:58:38.850Z,25.15
2017-05-21T11:59:19.428Z,24.95
2017-05-21T12:00:00.021Z,25
2017-05-21T12:00:40.596Z,24.98
2017-05-21T12:01:21.641Z,24.78
2017-05-21T12:02:02.222Z,24.64
2017-05-21T12:02:42.793Z,24.42
2017-05-21T12:03:23.411Z,24.37
2017-05-21T12:04:03.954Z,24.27
2017-05-21T12:04:44.540Z,24.3
2017-05-21T12:05:25.115Z,24.42
2017-05-21T12:06:05.705Z,24.57
2017-05-21T12:06:46.299Z,24.73
2017-05-21T12:07:26.875Z,24.84
2017-05-21T12:08:07.450Z,24.96
2017-05-21T12:08:48.037Z,25.06
2017-05-21T12:09:28.611Z,25.17
2017-05-21T12:10:09.197Z,25.3
2017-05-21T12:10:49.794Z,25.45
2017-05-21T12:11:30.354Z,25.45
2017-05-21T12:12:10.930Z,25.25
2017-05-21T12:12:51.506Z,24.87
2017-05-21T12:13:32.129Z,24.58
2017-05-21T12:14:12.800Z,24.32
2017-05-21T12:14:53.378Z,24.12
2017-05-21T12:15:33.957Z,24.06
2017-05-21T12:16:14.617Z,23.68
2017-05-21T12:16:55.205Z,23.4
2017-05-21T12:17:35.784Z,23.33
2017-05-21T12:18:16.356Z,23.38
2017-05-21T12:18:56.923Z,23.31
2017-05-21T12:19:37.504Z,23.15
2017-05-21T12:20:18.079Z,23.16
2017-05-21T12:20:58.653Z,23.17
2017-05-21T12:21:39.230Z,23.22
2017-05-21T12:22:19.811Z,23.19
2017-05-21T12:23:00.430Z,23.2
2017-05-21T12:23:41.010Z,23.22
2017-05-21T12:24:21.588Z,23.09
2017-05-21T12:25:02.170Z,23
2017-05-21T12:25:42.744Z,22.7
2017-05-21T12:26:23.324Z,22.65
2017-05-21T12:27:03.915Z,22.58
2017-05-21T12:27:44.513Z,22.62
2017-05-21T12:28:25.096Z,22.6
2017-05-21T12:29:05.679Z,22.58
2017-05-21T12:29:46.262Z,22.49
2017-05-21T12:30:26.854Z,22.39
2017-05-21T12:31:07.440Z,22.2
2017-05-21T12:31:48.020Z,21.96
2017-05-21T12:32:28.642Z,21.92
2017-05-21T12:33:09.223Z,21.62
2017-05-21T12:33:49.809Z,21.69
2017-05-21T12:34:30.389Z,21.58
2017-05-21T12:35:10.966Z,21.64
2017-05-21T12:35:51.549Z,21.62
2017-05-21T12:36:32.130Z,21.56
2017-05-21T12:37:12.710Z,21.69
2017-05-21T12:37:53.293Z,21.68
2017-05-21T12:38:33.867Z,21.64
2017-05-21T12:39:14.446Z,21.5
2017-05-21T12:39:55.031Z,21.54
2017-05-21T12:40:35.596Z,21.56
2017-05-21T12:41:16.176Z,21.67
2017-05-21T12:41:56.754Z,21.67
2017-05-21T12:42:37.352Z,21.65
2017-05-21T12:43:17.937Z,21.65
2017-05-21T12:43:58.554Z,21.74
2017-05-21T12:44:39.132Z,21.74
2017-05-21T12:45:19.719Z,21.88
2017-05-21T12:46:00.292Z,21.92
2017-05-21T12:46:40.863Z,21.86
2017-05-21T12:47:21.528Z,21.92
2017-05-21T12:48:02.113Z,21.91
2017-05-21T12:48:42.692Z,21.74
2017-05-21T12:49:23.307Z,21.75
2017-05-21T12:50:03.901Z,21.77
2017-05-21T12:50:44.487Z,21.59
2017-05-21T12:51:25.062Z,21.47
2017-05-21T12:52:05.641Z,21.32
2017-05-21T12:52:46.229Z,21.35
2017-05-21T12:53:26.800Z,21.34
2017-05-21T12:54:07.405Z,21.37
2017-05-21T12:54:47.965Z,21.35
2017-05-21T12:55:28.536Z,21.35
2017-05-21T12:56:09.147Z,21.21
2017-05-21T12:56:49.739Z,21.21
2017-05-21T12:57:30.326Z,21.27
2017-05-21T12:58:10.925Z,21.5
2017-05-21T12:58:51.509Z,21.5
2017-05-21T12:59:32.082Z,21.59
2017-05-21T13:00:12.689Z,21.71
2017-05-21T13:00:53.283Z,21.98
2017-05-21T13:01:33.861Z,22.22
2017-05-21T13:02:14.453Z,22.31
2017-05-21T13:02:55.071Z,22.24
2017-05-21T13:03:35.658Z,22.31
2017-05-21T13:04:16.247Z,22.18
2017-05-21T13:04:56.819Z,22.3
2017-05-21T13:05:37.409Z,22.33
2017-05-21T13:06:18.006Z,22.47
2017-05-21T13:06:58.592Z,22.6
2017-05-21T13:07:39.170Z,22.6
2017-05-21T13:08:19.751Z,22.7
2017-05-21T13:09:00.333Z,22.73
2017-05-21T13:09:40.905Z,22.88
2017-05-21T13:10:21.476Z,22.9
2017-05-21T13:11:02.064Z,23.01
2017-05-21T13:11:42.631Z,23.1
2017-05-21T13:12:23.214Z,23.16
2017-05-21T13:13:03.840Z,23.19
2017-05-21T13:13:44.431Z,23.27
2017-05-21T13:14:25.020Z,23.28
2017-05-21T13:15:05.601Z,23.28
2017-05-21T13:15:46.173Z,23.28
2017-05-21T13:16:26.755Z,23.35
2017-05-21T13:17:07.336Z,23.35
2017-05-21T13:17:47.908Z,23.19
2017-05-21T13:18:28.479Z,23.17
2017-05-21T13:19:09.080Z,23.02
2017-05-21T13:19:49.659Z,23.01
2017-05-21T13:20:30.247Z,23.09
2017-05-21T13:21:10.831Z,23.09
2017-05-21T13:21:51.408Z,23.16
2017-05-21T13:22:32.006Z,23.19
2017-05-21T13:23:12.594Z,23.22
2017-05-21T13:23:53.167Z,23.23
2017-05-21T13:24:33.753Z,23.28
2017-05-21T13:25:14.354Z,23.35
2017-05-21T13:25:54.938Z,23.27
2017-05-21T13:26:35.516Z,23.25
2017-05-21T13:27:16.100Z,23.27
2017-05-21T13:27:56.695Z,23.33
2017-05-21T13:28:37.267Z,23.39
2017-05-21T13:29:17.841Z,23.47
2017-05-21T13:29:58.424Z,23.47
2017-05-21T13:30:39.008Z,23.5
2017-05-21T13:31:19.598Z,23.42
2017-05-21T13:32:00.205Z,23.48
2017-05-21T13:32:40.752Z,23.38
2017-05-21T13:33:21.328Z,23.36
2017-05-21T13:34:01.917Z,23.35
2017-05-21T13:34:42.500Z,23.39
2017-05-21T13:35:23.083Z,23.38
2017-05-21T13:36:03.695Z,23.31
2017-05-21T13:36:44.271Z,23.32
2017-05-21T13:37:24.840Z,23.32
2017-05-21T13:38:05.433Z,23.17
2017-05-21T13:38:46.022Z,23.16
2017-05-21T13:39:26.620Z,23.1
2017-05-21T13:40:07.200Z,23.07
2017-05-21T13:40:47.784Z,23.07
2017-05-21T13:41:28.362Z,23.01
2017-05-21T13:42:08.938Z,22.9
2017-05-21T13:42:49.529Z,22.91
2017-05-21T13:43:30.103Z,22.83
2017-05-21T13:44:10.685Z,22.85
2017-05-21T13:44:51.273Z,22.91
2017-05-21T13:45:31.840Z,22.94
2017-05-21T13:46:12.421Z,23.01
2017-05-21T13:46:53.004Z,23.01
2017-05-21T13:47:33.581Z,22.97
2017-05-21T13:48:14.160Z,22.92
2017-05-21T13:48:54.752Z,22.91
2017-05-21T13:49:35.346Z,22.88
2017-05-21T13:50:15.940Z,22.75
2017-05-21T13:50:56.528Z,22.75
2017-05-21T13:51:37.109Z,22.75
2017-05-21T13:52:17.695Z,22.68
2017-05-21T13:52:58.295Z,22.52
2017-05-21T13:53:38.904Z,22.55
2017-05-21T13:54:19.488Z,22.61
2017-05-21T13:55:00.085Z,22.67
2017-05-21T13:55:40.679Z,22.75
2017-05-21T13:56:21.257Z,22.9
2017-05-21T13:57:01.833Z,22.91
2017-05-21T13:57:42.426Z,22.86
2017-05-21T13:58:23.010Z,22.92
2017-05-21T13:59:03.600Z,22.92
2017-05-21T13:59:44.176Z,22.82
2017-05-21T14:00:24.763Z,22.91
2017-05-21T14:01:05.354Z,22.82
2017-05-21T14:01:45.961Z,22.79
2017-05-21T14:02:26.551Z,22.91
2017-05-21T14:03:07.142Z,22.8
2017-05-21T14:03:47.720Z,22.68
2017-05-21T14:04:28.309Z,22.46
2017-05-21T14:05:08.899Z,22.36
2017-05-21T14:05:49.478Z,22.24
2017-05-21T14:06:30.056Z,22.09
2017-05-21T14:07:10.633Z,21.94
2017-05-21T14:07:51.226Z,21.9
2017-05-21T14:08:31.795Z,21.8
2017-05-21T14:09:12.374Z,21.8
2017-05-21T14:09:52.981Z,21.77
2017-05-21T14:10:33.577Z,21.77
2017-05-21T14:11:14.170Z,21.82
2017-05-21T14:11:54.741Z,21.86
2017-05-21T14:12:35.331Z,21.9
2017-05-21T14:13:15.911Z,21.98
2017-05-21T14:13:56.493Z,21.99
2017-05-21T14:14:37.103Z,22.1
2017-05-21T14:15:17.737Z,22.17
2017-05-21T14:15:58.316Z,22.1
2017-05-21T14:16:38.897Z,22.05
2017-05-21T14:17:19.483Z,21.91
2017-05-21T14:18:00.067Z,21.91
2017-05-21T14:18:40.653Z,21.84
2017-05-21T14:19:21.268Z,21.96
2017-05-21T14:20:01.857Z,21.88
2017-05-21T14:20:42.444Z,21.92
2017-05-21T14:21:23.022Z,21.83
2017-05-21T14:22:03.604Z,21.88
2017-05-21T14:22:44.170Z,21.83
2017-05-21T14:23:24.758Z,21.88
2017-05-21T14:24:05.334Z,22
2017-05-21T14:24:45.920Z,22.09
2017-05-21T14:25:26.507Z,22.12
2017-05-21T14:26:07.144Z,22.22
2017-05-21T14:26:47.716Z,22.12
2017-05-21T14:27:28.289Z,21.86
2017-05-21T14:28:08.862Z,21.86
2017-05-21T14:28:49.479Z,21.84
2017-05-21T14:29:30.058Z,21.72
2017-05-21T14:30:10.640Z,21.74
2017-05-21T14:30:51.220Z,21.72
2017-05-21T14:31:31.816Z,21.67
2017-05-21T14:32:12.392Z,21.74
2017-05-21T14:32:52.992Z,21.74
2017-05-21T14:33:33.579Z,21.83
2017-05-21T14:34:14.150Z,21.84
2017-05-21T14:34:54.736Z,21.86
2017-05-21T14:35:35.319Z,21.84
2017-05-21T14:36:15.897Z,21.88
2017-05-21T14:36:56.498Z,21.83
2017-05-21T14:37:37.043Z,21.75
2017-05-21T14:38:17.640Z,21.58
2017-05-21T14:38:58.234Z,21.5
2017-05-21T14:39:38.806Z,21.52
2017-05-21T14:40:19.389Z,21.47
2017-05-21T14:40:59.985Z,21.52
2017-05-21T14:41:40.560Z,21.47
2017-05-21T14:42:21.162Z,21.64
2017-05-21T14:43:01.783Z,21.65
2017-05-21T14:43:42.358Z,21.72
2017-05-21T14:44:22.946Z,21.8
2017-05-21T14:45:03.513Z,21.86
2017-05-21T14:45:44.121Z,21.99
2017-05-21T14:46:24.716Z,21.96
2017-05-21T14:47:05.325Z,22.05
2017-05-21T14:47:45.916Z,22.12
2017-05-21T14:48:26.512Z,22.25
2017-05-21T14:49:07.090Z,22.36
2017-05-21T14:49:47.673Z,22.49
2017-05-21T14:50:28.270Z,22.58
2017-05-21T14:51:08.842Z,22.55
2017-05-21T14:51:49.418Z,22.7
2017-05-21T14:52:29.997Z,22.67
2017-05-21T14:53:10.574Z,22.75
2017-05-21T14:53:51.148Z,22.79
2017-05-21T14:54:31.736Z,22.8
2017-05-21T14:55:12.332Z,22.79
2017-05-21T14:55:52.904Z,22.62
2017-05-21T14:56:33.494Z,22.55
2017-05-21T14:57:14.079Z,22.55
2017-05-21T14:57:54.658Z,22.54
2017-05-21T14:58:35.233Z,22.64
2017-05-21T14:59:15.815Z,22.65
2017-05-21T14:59:56.389Z,22.64
2017-05-21T15:00:36.973Z,22.73
2017-05-21T15:01:17.553Z,22.76
2017-05-21T15:01:58.161Z,22.82
2017-05-21T15:02:38.757Z,22.77
2017-05-21T15:03:19.441Z,22.76
2017-05-21T15:03:59.955Z,22.75
2017-05-21T15:04:40.503Z,22.76
2017-05-21T15:05:21.081Z,22.85
2017-05-21T15:06:01.672Z,22.86
2017-05-21T15:06:42.266Z,22.91
2017-05-21T15:07:22.865Z,22.77
2017-05-21T15:08:03.461Z,22.79
2017-05-21T15:08:44.144Z,22.62
2017-05-21T15:09:26.676Z,22.67
2017-05-21T15:10:07.262Z,22.6
2017-05-21T15:10:47.846Z,22.6
2017-05-21T15:11:28.472Z,22.61
2017-05-21T15:12:09.053Z,22.51
2017-05-21T15:12:49.672Z,22.46
2017-05-21T15:13:30.748Z,22.51
2017-05-21T15:14:12.520Z,22.43
2017-05-21T15:14:55.132Z,22.46
2017-05-21T15:15:35.721Z,22.35
2017-05-21T15:16:16.351Z,22.39
2017-05-21T15:16:57.191Z,22.42
2017-05-21T15:17:37.972Z,22.46
2017-05-21T15:18:18.707Z,22.31
2017-05-21T15:18:59.393Z,22.35
2017-05-21T15:19:40.075Z,22.3
2017-05-21T15:20:20.658Z,22.33
2017-05-21T15:21:01.257Z,22.37
2017-05-21T15:21:41.929Z,22.27
2017-05-21T15:22:22.556Z,22.28
2017-05-21T15:23:03.174Z,22.35
2017-05-21T15:23:43.760Z,22.31